sensor_id;sensor_type;location;lat;lon;timestamp;P1;P2;P0
73825;PMS5003;64145;55.060;73.168;2023-05-15T00:01:29;61.50;52.00;35.75
73825;PMS5003;64145;55.060;73.168;2023-05-15T00:03:55;62.75;53.00;36.50
73825;PMS5003;64145;55.060;73.168;2023-05-15T00:06:38;62.00;52.00;35.00
73825;PMS5003;64145;55.060;73.168;2023-05-15T00:09:04;62.00;53.00;37.00
73825;PMS5003;64145;55.060;73.168;2023-05-15T00:11:48;62.50;52.75;35.25
73825;PMS5003;64145;55.060;73.168;2023-05-15T00:14:32;64.00;53.00;36.75
73825;PMS5003;64145;55.060;73.168;2023-05-15T00:16:58;65.33;56.33;39.00
73825;PMS5003;64145;55.060;73.168;2023-05-15T00:19:23;67.00;59.00;39.67
73825;PMS5003;64145;55.060;73.168;2023-05-15T00:21:49;70.33;67.00;45.00
73825;PMS5003;64145;55.060;73.168;2023-05-15T00:24:14;72.00;70.00;45.33
73825;PMS5003;64145;55.060;73.168;2023-05-15T00:26:40;73.00;69.33;46.33
73825;PMS5003;64145;55.060;73.168;2023-05-15T00:31:50;78.75;74.25;50.25
73825;PMS5003;64145;55.060;73.168;2023-05-15T00:34:15;83.00;78.67;52.00
73825;PMS5003;64145;55.060;73.168;2023-05-15T00:36:41;79.00;74.67;49.00
73825;PMS5003;64145;55.060;73.168;2023-05-15T00:39:06;82.00;75.67;50.00
73825;PMS5003;64145;55.060;73.168;2023-05-15T00:41:32;90.00;84.00;54.00
73825;PMS5003;64145;55.060;73.168;2023-05-15T00:43:57;93.25;87.75;56.00
73825;PMS5003;64145;55.060;73.168;2023-05-15T00:46:24;89.50;86.00;57.75
73825;PMS5003;64145;55.060;73.168;2023-05-15T00:48:51;92.50;87.75;58.50
73825;PMS5003;64145;55.060;73.168;2023-05-15T00:51:17;101.50;95.50;63.50
73825;PMS5003;64145;55.060;73.168;2023-05-15T00:53:43;107.00;98.00;62.33
73825;PMS5003;64145;55.060;73.168;2023-05-15T00:56:09;106.00;98.00;65.33
73825;PMS5003;64145;55.060;73.168;2023-05-15T00:58:36;105.00;98.25;62.00
73825;PMS5003;64145;55.060;73.168;2023-05-15T01:03:46;105.75;96.50;63.50
73825;PMS5003;64145;55.060;73.168;2023-05-15T01:06:11;100.00;93.33;61.00
73825;PMS5003;64145;55.060;73.168;2023-05-15T01:11:26;97.00;92.50;58.50
73825;PMS5003;64145;55.060;73.168;2023-05-15T01:13:52;104.75;98.75;62.75
73825;PMS5003;64145;55.060;73.168;2023-05-15T01:16:19;102.33;96.33;62.33
73825;PMS5003;64145;55.060;73.168;2023-05-15T01:27:06;102.00;97.50;63.50
73825;PMS5003;64145;55.060;73.168;2023-05-15T01:37:45;101.67;96.00;63.00
73825;PMS5003;64145;55.060;73.168;2023-05-15T01:40:14;105.00;97.25;62.00
73825;PMS5003;64145;55.060;73.168;2023-05-15T01:42:41;102.25;96.50;61.50
73825;PMS5003;64145;55.060;73.168;2023-05-15T01:45:10;103.00;96.50;62.50
73825;PMS5003;64145;55.060;73.168;2023-05-15T01:47:40;104.00;98.75;63.50
73825;PMS5003;64145;55.060;73.168;2023-05-15T01:50:09;102.75;94.50;62.00
73825;PMS5003;64145;55.060;73.168;2023-05-15T01:52:36;98.50;93.25;62.50
73825;PMS5003;64145;55.060;73.168;2023-05-15T01:55:03;100.50;94.50;62.00
73825;PMS5003;64145;55.060;73.168;2023-05-15T01:57:30;97.50;92.00;60.50
73825;PMS5003;64145;55.060;73.168;2023-05-15T01:59:56;96.50;90.00;57.50
73825;PMS5003;64145;55.060;73.168;2023-05-15T02:02:22;91.00;85.00;53.75
73825;PMS5003;64145;55.060;73.168;2023-05-15T02:04:48;87.67;81.00;51.33
73825;PMS5003;64145;55.060;73.168;2023-05-15T02:07:33;80.50;75.50;48.50
73825;PMS5003;64145;55.060;73.168;2023-05-15T02:09:59;75.50;71.75;45.50
73825;PMS5003;64145;55.060;73.168;2023-05-15T02:12:26;76.75;70.75;46.50
73825;PMS5003;64145;55.060;73.168;2023-05-15T02:14:52;77.50;72.50;46.00
73825;PMS5003;64145;55.060;73.168;2023-05-15T02:17:20;75.00;68.00;43.00
73825;PMS5003;64145;55.060;73.168;2023-05-15T02:19:47;74.00;65.00;42.00
73825;PMS5003;64145;55.060;73.168;2023-05-15T02:22:12;74.00;65.00;41.00
73825;PMS5003;64145;55.060;73.168;2023-05-15T02:27:50;68.00;56.25;35.00
73825;PMS5003;64145;55.060;73.168;2023-05-15T02:37:56;62.00;49.67;32.00
73825;PMS5003;64145;55.060;73.168;2023-05-15T02:43:27;63.00;50.00;33.00
73825;PMS5003;64145;55.060;73.168;2023-05-15T02:45:53;61.00;48.50;32.00
73825;PMS5003;64145;55.060;73.168;2023-05-15T02:48:20;60.50;48.00;32.00
73825;PMS5003;64145;55.060;73.168;2023-05-15T02:50:47;61.50;49.00;33.00
73825;PMS5003;64145;55.060;73.168;2023-05-15T02:53:12;63.67;51.67;33.00
73825;PMS5003;64145;55.060;73.168;2023-05-15T02:55:40;61.50;48.00;31.50
73825;PMS5003;64145;55.060;73.168;2023-05-15T03:00:51;59.00;46.00;32.00
73825;PMS5003;64145;55.060;73.168;2023-05-15T03:03:16;59.00;49.00;32.00
73825;PMS5003;64145;55.060;73.168;2023-05-15T03:05:42;60.67;50.00;33.00
73825;PMS5003;64145;55.060;73.168;2023-05-15T03:08:11;63.25;50.00;33.00
73825;PMS5003;64145;55.060;73.168;2023-05-15T03:10:36;64.67;51.33;33.33
73825;PMS5003;64145;55.060;73.168;2023-05-15T03:13:02;62.00;50.67;33.00
73825;PMS5003;64145;55.060;73.168;2023-05-15T03:15:27;63.00;51.00;34.00
73825;PMS5003;64145;55.060;73.168;2023-05-15T03:17:53;65.00;52.00;34.00
73825;PMS5003;64145;55.060;73.168;2023-05-15T03:20:18;64.00;52.33;34.00
73825;PMS5003;64145;55.060;73.168;2023-05-15T03:22:44;66.00;53.00;34.00
73825;PMS5003;64145;55.060;73.168;2023-05-15T03:25:10;65.33;53.00;34.00
73825;PMS5003;64145;55.060;73.168;2023-05-15T03:27:36;61.50;48.00;31.50
73825;PMS5003;64145;55.060;73.168;2023-05-15T03:30:02;62.00;49.00;32.00
73825;PMS5003;64145;55.060;73.168;2023-05-15T03:32:28;60.00;48.00;31.00
73825;PMS5003;64145;55.060;73.168;2023-05-15T03:34:53;60.00;48.67;32.00
73825;PMS5003;64145;55.060;73.168;2023-05-15T03:37:19;60.00;48.33;31.67
73825;PMS5003;64145;55.060;73.168;2023-05-15T03:39:44;57.67;46.67;31.00
73825;PMS5003;64145;55.060;73.168;2023-05-15T03:42:10;56.00;45.67;30.33
73825;PMS5003;64145;55.060;73.168;2023-05-15T03:44:36;61.25;48.25;32.00
73825;PMS5003;64145;55.060;73.168;2023-05-15T03:47:02;57.33;46.67;31.00
73825;PMS5003;64145;55.060;73.168;2023-05-15T03:49:27;56.33;46.00;30.00
73825;PMS5003;64145;55.060;73.168;2023-05-15T03:51:53;54.00;45.00;28.00
73825;PMS5003;64145;55.060;73.168;2023-05-15T03:54:18;54.00;44.00;29.00
73825;PMS5003;64145;55.060;73.168;2023-05-15T03:56:44;52.33;43.00;28.00
73825;PMS5003;64145;55.060;73.168;2023-05-15T03:59:10;52.00;43.00;29.00
73825;PMS5003;64145;55.060;73.168;2023-05-15T04:01:35;48.00;40.67;27.00
73825;PMS5003;64145;55.060;73.168;2023-05-15T04:04:01;52.67;42.67;27.00
73825;PMS5003;64145;55.060;73.168;2023-05-15T04:06:26;49.67;41.00;26.00
73825;PMS5003;64145;55.060;73.168;2023-05-15T04:11:54;49.00;41.00;27.00
73825;PMS5003;64145;55.060;73.168;2023-05-15T04:14:38;43.00;36.50;25.00
73825;PMS5003;64145;55.060;73.168;2023-05-15T04:17:04;46.00;39.00;25.00
73825;PMS5003;64145;55.060;73.168;2023-05-15T04:19:29;45.67;37.67;25.00
73825;PMS5003;64145;55.060;73.168;2023-05-15T04:21:55;44.00;35.00;24.00
73825;PMS5003;64145;55.060;73.168;2023-05-15T04:24:20;43.00;35.00;24.00
73825;PMS5003;64145;55.060;73.168;2023-05-15T04:26:46;43.00;36.33;24.00
73825;PMS5003;64145;55.060;73.168;2023-05-15T04:31:56;40.50;33.00;22.00
73825;PMS5003;64145;55.060;73.168;2023-05-15T04:34:21;41.00;35.00;22.00
73825;PMS5003;64145;55.060;73.168;2023-05-15T04:36:47;39.33;33.00;22.67
73825;PMS5003;64145;55.060;73.168;2023-05-15T04:39:31;41.00;33.50;22.00
73825;PMS5003;64145;55.060;73.168;2023-05-15T04:41:56;39.00;34.00;23.00
73825;PMS5003;64145;55.060;73.168;2023-05-15T04:44:22;38.00;33.00;23.00
73825;PMS5003;64145;55.060;73.168;2023-05-15T04:46:47;38.33;33.33;22.00
73825;PMS5003;64145;55.060;73.168;2023-05-15T04:49:13;37.00;33.00;21.67
73825;PMS5003;64145;55.060;73.168;2023-05-15T04:51:38;37.67;34.00;22.00
73825;PMS5003;64145;55.060;73.168;2023-05-15T04:54:06;38.50;33.00;21.25
73825;PMS5003;64145;55.060;73.168;2023-05-15T04:56:32;38.25;33.50;22.00
73825;PMS5003;64145;55.060;73.168;2023-05-15T04:58:58;42.00;35.00;22.00
73825;PMS5003;64145;55.060;73.168;2023-05-15T05:01:24;43.67;35.00;22.00
73825;PMS5003;64145;55.060;73.168;2023-05-15T05:06:33;42.50;34.50;22.50
73825;PMS5003;64145;55.060;73.168;2023-05-15T05:08:59;42.33;34.00;22.00
73825;PMS5003;64145;55.060;73.168;2023-05-15T05:11:26;37.50;32.50;21.50
73825;PMS5003;64145;55.060;73.168;2023-05-15T05:13:51;39.33;33.00;22.00
73825;PMS5003;64145;55.060;73.168;2023-05-15T05:16:17;43.00;34.00;22.67
73825;PMS5003;64145;55.060;73.168;2023-05-15T05:18:42;45.67;35.67;24.00
73825;PMS5003;64145;55.060;73.168;2023-05-15T05:21:08;46.00;35.00;23.00
73825;PMS5003;64145;55.060;73.168;2023-05-15T05:23:34;46.00;36.33;24.00
73825;PMS5003;64145;55.060;73.168;2023-05-15T05:25:59;47.00;37.00;24.33
73825;PMS5003;64145;55.060;73.168;2023-05-15T05:33:54;45.00;37.00;24.00
73825;PMS5003;64145;55.060;73.168;2023-05-15T05:36:19;45.00;36.00;24.00
73825;PMS5003;64145;55.060;73.168;2023-05-15T05:38:45;44.00;36.00;23.33
73825;PMS5003;64145;55.060;73.168;2023-05-15T05:43:55;43.50;36.50;24.00
73825;PMS5003;64145;55.060;73.168;2023-05-15T05:46:22;43.75;36.00;24.00
73825;PMS5003;64145;55.060;73.168;2023-05-15T05:49:06;47.00;38.00;25.00
73825;PMS5003;64145;55.060;73.168;2023-05-15T05:51:33;46.00;39.00;24.00
73825;PMS5003;64145;55.060;73.168;2023-05-15T05:54:00;42.00;35.00;22.00
73825;PMS5003;64145;55.060;73.168;2023-05-15T05:59:11;40.75;34.00;22.75
73825;PMS5003;64145;55.060;73.168;2023-05-15T06:01:37;44.00;37.00;24.00
73825;PMS5003;64145;55.060;73.168;2023-05-15T06:04:03;46.00;37.00;24.33
73825;PMS5003;64145;55.060;73.168;2023-05-15T06:06:28;43.67;35.00;23.00
73825;PMS5003;64145;55.060;73.168;2023-05-15T06:08:54;38.67;34.00;22.00
73825;PMS5003;64145;55.060;73.168;2023-05-15T06:11:19;37.00;31.00;22.00
73825;PMS5003;64145;55.060;73.168;2023-05-15T06:13:45;41.00;33.25;22.25
73825;PMS5003;64145;55.060;73.168;2023-05-15T06:16:29;40.75;34.00;22.00
73825;PMS5003;64145;55.060;73.168;2023-05-15T06:18:55;38.00;33.00;21.00
73825;PMS5003;64145;55.060;73.168;2023-05-15T06:21:20;32.67;29.33;19.33
73825;PMS5003;64145;55.060;73.168;2023-05-15T06:23:48;31.00;29.00;19.00
73825;PMS5003;64145;55.060;73.168;2023-05-15T06:26:13;33.00;30.33;20.00
73825;PMS5003;64145;55.060;73.168;2023-05-15T06:28:39;29.33;27.00;19.00
73825;PMS5003;64145;55.060;73.168;2023-05-15T06:31:05;26.00;24.00;17.67
73825;PMS5003;64145;55.060;73.168;2023-05-15T06:33:30;19.00;19.00;10.00
73825;PMS5003;64145;55.060;73.168;2023-05-15T06:35:56;20.67;19.00;9.00
73825;PMS5003;64145;55.060;73.168;2023-05-15T06:38:21;22.00;20.00;8.00
73825;PMS5003;64145;55.060;73.168;2023-05-15T06:43:31;18.00;17.00;8.50
73825;PMS5003;64145;55.060;73.168;2023-05-15T06:45:57;18.00;17.00;8.00
73825;PMS5003;64145;55.060;73.168;2023-05-15T06:48:22;19.00;18.00;8.00
73825;PMS5003;64145;55.060;73.168;2023-05-15T06:50:48;20.00;20.00;11.00
73825;PMS5003;64145;55.060;73.168;2023-05-15T06:53:13;20.67;19.33;9.33
73825;PMS5003;64145;55.060;73.168;2023-05-15T06:55:58;21.50;19.50;8.75
73825;PMS5003;64145;55.060;73.168;2023-05-15T06:58:24;20.33;19.00;7.00
73825;PMS5003;64145;55.060;73.168;2023-05-15T07:00:49;17.50;17.50;6.00
73825;PMS5003;64145;55.060;73.168;2023-05-15T07:03:15;17.00;17.00;7.00
73825;PMS5003;64145;55.060;73.168;2023-05-15T07:08:26;19.50;15.50;7.50
73825;PMS5003;64145;55.060;73.168;2023-05-15T07:10:52;18.00;16.00;8.00
73825;PMS5003;64145;55.060;73.168;2023-05-15T07:13:21;16.67;16.00;9.00
73825;PMS5003;64145;55.060;73.168;2023-05-15T07:15:46;17.25;17.25;8.00
73825;PMS5003;64145;55.060;73.168;2023-05-15T07:18:12;15.00;15.00;5.00
73825;PMS5003;64145;55.060;73.168;2023-05-15T07:20:37;15.00;14.67;5.00
73825;PMS5003;64145;55.060;73.168;2023-05-15T07:23:04;17.00;17.00;6.00
73825;PMS5003;64145;55.060;73.168;2023-05-15T07:25:29;18.75;17.00;6.00
73825;PMS5003;64145;55.060;73.168;2023-05-15T07:27:55;18.00;16.00;6.00
73825;PMS5003;64145;55.060;73.168;2023-05-15T07:30:21;15.67;14.67;5.00
73825;PMS5003;64145;55.060;73.168;2023-05-15T07:32:47;16.00;16.00;7.75
73825;PMS5003;64145;55.060;73.168;2023-05-15T07:35:13;15.00;15.00;6.00
73825;PMS5003;64145;55.060;73.168;2023-05-15T07:37:38;14.00;12.00;6.00
73825;PMS5003;64145;55.060;73.168;2023-05-15T07:42:50;11.00;10.00;5.00
73825;PMS5003;64145;55.060;73.168;2023-05-15T07:45:16;9.00;9.00;3.00
73825;PMS5003;64145;55.060;73.168;2023-05-15T07:47:43;14.67;12.33;7.00
73825;PMS5003;64145;55.060;73.168;2023-05-15T07:50:10;19.00;19.00;9.00
73825;PMS5003;64145;55.060;73.168;2023-05-15T07:52:36;19.00;18.00;10.00
73825;PMS5003;64145;55.060;73.168;2023-05-15T07:55:02;22.00;19.67;8.00
73825;PMS5003;64145;55.060;73.168;2023-05-15T07:57:46;24.75;23.50;12.50
73825;PMS5003;64145;55.060;73.168;2023-05-15T08:00:11;26.67;26.00;16.00
73825;PMS5003;64145;55.060;73.168;2023-05-15T08:02:38;23.00;21.25;15.75
73825;PMS5003;64145;55.060;73.168;2023-05-15T08:05:04;22.33;21.00;13.00
73825;PMS5003;64145;55.060;73.168;2023-05-15T08:07:30;24.67;20.67;12.00
73825;PMS5003;64145;55.060;73.168;2023-05-15T08:09:56;26.00;24.00;12.75
73825;PMS5003;64145;55.060;73.168;2023-05-15T08:15:25;25.25;25.25;15.00
73825;PMS5003;64145;55.060;73.168;2023-05-15T08:17:50;27.00;25.67;15.67
73825;PMS5003;64145;55.060;73.168;2023-05-15T08:20:35;26.00;25.00;17.00
73825;PMS5003;64145;55.060;73.168;2023-05-15T08:23:01;30.00;28.75;17.25
73825;PMS5003;64145;55.060;73.168;2023-05-15T08:25:26;30.00;27.00;16.00
73825;PMS5003;64145;55.060;73.168;2023-05-15T08:28:10;28.00;25.00;16.00
73825;PMS5003;64145;55.060;73.168;2023-05-15T08:30:36;27.00;26.67;16.00
73825;PMS5003;64145;55.060;73.168;2023-05-15T08:33:03;23.00;23.00;15.00
73825;PMS5003;64145;55.060;73.168;2023-05-15T08:35:29;27.75;27.00;14.00
73825;PMS5003;64145;55.060;73.168;2023-05-15T08:37:56;24.67;24.33;14.67
73825;PMS5003;64145;55.060;73.168;2023-05-15T08:40:29;31.00;29.00;18.00
73825;PMS5003;64145;55.060;73.168;2023-05-15T08:42:55;29.00;28.00;19.00
73825;PMS5003;64145;55.060;73.168;2023-05-15T08:45:23;27.25;27.00;18.00
73825;PMS5003;64145;55.060;73.168;2023-05-15T08:47:50;30.50;28.25;18.00
73825;PMS5003;64145;55.060;73.168;2023-05-15T08:50:16;31.00;29.00;19.00
73825;PMS5003;64145;55.060;73.168;2023-05-15T08:53:00;33.00;30.50;21.00
73825;PMS5003;64145;55.060;73.168;2023-05-15T08:58:10;33.00;29.25;17.00
73825;PMS5003;64145;55.060;73.168;2023-05-15T09:00:36;35.00;32.00;19.00
73825;PMS5003;64145;55.060;73.168;2023-05-15T09:03:20;30.00;29.00;19.00
73825;PMS5003;64145;55.060;73.168;2023-05-15T09:06:04;32.00;29.00;19.00
73825;PMS5003;64145;55.060;73.168;2023-05-15T09:11:14;32.25;29.50;19.00
73825;PMS5003;64145;55.060;73.168;2023-05-15T09:16:25;33.25;30.25;18.75
73825;PMS5003;64145;55.060;73.168;2023-05-15T09:18:51;37.00;31.00;20.67
73825;PMS5003;64145;55.060;73.168;2023-05-15T09:21:29;36.50;31.00;21.00
73825;PMS5003;64145;55.060;73.168;2023-05-15T09:24:20;40.00;32.50;22.00
73825;PMS5003;64145;55.060;73.168;2023-05-15T09:27:01;38.50;34.00;22.00
73825;PMS5003;64145;55.060;73.168;2023-05-15T09:29:28;40.50;34.25;23.00
73825;PMS5003;64145;55.060;73.168;2023-05-15T09:31:54;44.50;37.00;25.00
73825;PMS5003;64145;55.060;73.168;2023-05-15T09:34:27;48.25;40.00;26.00
73825;PMS5003;64145;55.060;73.168;2023-05-15T09:36:53;47.00;39.00;26.00
73825;PMS5003;64145;55.060;73.168;2023-05-15T09:39:21;48.00;40.00;26.00
73825;PMS5003;64145;55.060;73.168;2023-05-15T09:41:47;48.00;39.25;25.00
73825;PMS5003;64145;55.060;73.168;2023-05-15T09:44:31;46.25;38.25;25.25
73825;PMS5003;64145;55.060;73.168;2023-05-15T09:46:57;49.75;40.00;27.00
73825;PMS5003;64145;55.060;73.168;2023-05-15T09:49:23;54.00;43.67;27.00
73825;PMS5003;64145;55.060;73.168;2023-05-15T09:51:49;52.00;43.00;27.00
73825;PMS5003;64145;55.060;73.168;2023-05-15T09:57:20;53.50;44.50;29.00
73825;PMS5003;64145;55.060;73.168;2023-05-15T09:59:47;53.75;44.00;29.00
73825;PMS5003;64145;55.060;73.168;2023-05-15T10:02:21;55.00;45.00;30.00
73825;PMS5003;64145;55.060;73.168;2023-05-15T10:04:54;58.25;46.00;31.50
73825;PMS5003;64145;55.060;73.168;2023-05-15T10:07:27;57.00;45.00;31.00
73825;PMS5003;64145;55.060;73.168;2023-05-15T10:09:53;52.00;42.50;29.00
73825;PMS5003;64145;55.060;73.168;2023-05-15T10:12:18;56.00;45.00;30.00
73825;PMS5003;64145;55.060;73.168;2023-05-15T10:14:44;60.00;47.00;31.00
73825;PMS5003;64145;55.060;73.168;2023-05-15T10:17:10;61.00;49.00;33.00
73825;PMS5003;64145;55.060;73.168;2023-05-15T10:19:37;59.25;48.00;32.00
73825;PMS5003;64145;55.060;73.168;2023-05-15T10:22:03;59.75;49.25;32.50
73825;PMS5003;64145;55.060;73.168;2023-05-15T10:24:29;65.25;51.50;33.25
73825;PMS5003;64145;55.060;73.168;2023-05-15T10:26:55;65.00;53.00;35.00
73825;PMS5003;64145;55.060;73.168;2023-05-15T10:29:21;63.00;52.00;33.00
73825;PMS5003;64145;55.060;73.168;2023-05-15T10:31:49;62.75;50.00;32.75
73825;PMS5003;64145;55.060;73.168;2023-05-15T10:34:35;61.75;50.00;33.00
73825;PMS5003;64145;55.060;73.168;2023-05-15T10:37:00;65.00;52.00;35.00
73825;PMS5003;64145;55.060;73.168;2023-05-15T10:39:26;67.00;54.00;35.00
73825;PMS5003;64145;55.060;73.168;2023-05-15T10:41:53;66.00;52.00;34.25
73825;PMS5003;64145;55.060;73.168;2023-05-15T10:44:39;66.25;51.75;34.00
73825;PMS5003;64145;55.060;73.168;2023-05-15T10:47:24;65.00;51.00;33.00
73825;PMS5003;64145;55.060;73.168;2023-05-15T10:49:50;66.25;52.50;33.50
73825;PMS5003;64145;55.060;73.168;2023-05-15T10:52:16;65.67;51.67;34.00
73825;PMS5003;64145;55.060;73.168;2023-05-15T10:54:42;65.00;51.00;34.00
73825;PMS5003;64145;55.060;73.168;2023-05-15T10:57:08;63.00;51.00;34.00
73825;PMS5003;64145;55.060;73.168;2023-05-15T10:59:34;64.50;51.00;33.00
73825;PMS5003;64145;55.060;73.168;2023-05-15T11:04:44;66.00;52.00;34.00
73825;PMS5003;64145;55.060;73.168;2023-05-15T11:07:11;65.00;51.33;33.00
73825;PMS5003;64145;55.060;73.168;2023-05-15T11:09:37;65.50;52.00;34.00
73825;PMS5003;64145;55.060;73.168;2023-05-15T11:12:03;64.50;51.00;32.50
73825;PMS5003;64145;55.060;73.168;2023-05-15T11:14:40;67.25;54.00;34.25
73825;PMS5003;64145;55.060;73.168;2023-05-15T11:17:10;67.25;53.00;35.00
73825;PMS5003;64145;55.060;73.168;2023-05-15T11:19:36;68.50;56.25;35.75
73825;PMS5003;64145;55.060;73.168;2023-05-15T11:24:32;67.00;55.00;35.75
73825;PMS5003;64145;55.060;73.168;2023-05-15T11:26:58;66.75;54.00;36.75
73825;PMS5003;64145;55.060;73.168;2023-05-15T11:29:24;69.00;57.00;37.00
73825;PMS5003;64145;55.060;73.168;2023-05-15T11:31:49;64.33;54.00;34.00
73825;PMS5003;64145;55.060;73.168;2023-05-15T11:34:26;70.33;62.00;39.00
73825;PMS5003;64145;55.060;73.168;2023-05-15T11:36:53;68.75;57.25;37.00
73825;PMS5003;64145;55.060;73.168;2023-05-15T11:39:21;70.00;57.33;36.00
73825;PMS5003;64145;55.060;73.168;2023-05-15T11:41:47;69.50;58.00;38.50
73825;PMS5003;64145;55.060;73.168;2023-05-15T11:44:18;69.00;57.25;37.00
73825;PMS5003;64145;55.060;73.168;2023-05-15T11:46:44;70.00;60.25;38.00
73825;PMS5003;64145;55.060;73.168;2023-05-15T11:49:10;70.00;60.25;37.75
73825;PMS5003;64145;55.060;73.168;2023-05-15T11:51:35;71.33;61.33;38.67
73825;PMS5003;64145;55.060;73.168;2023-05-15T11:54:07;69.50;58.75;37.50
73825;PMS5003;64145;55.060;73.168;2023-05-15T11:56:34;68.00;56.50;36.00
73825;PMS5003;64145;55.060;73.168;2023-05-15T11:59:06;67.50;53.25;35.00
73825;PMS5003;64145;55.060;73.168;2023-05-15T12:01:38;69.00;56.00;35.25
73825;PMS5003;64145;55.060;73.168;2023-05-15T12:04:10;71.50;59.50;38.50
73825;PMS5003;64145;55.060;73.168;2023-05-15T12:09:20;70.75;59.50;37.00
73825;PMS5003;64145;55.060;73.168;2023-05-15T12:12:04;71.25;60.00;39.00
73825;PMS5003;64145;55.060;73.168;2023-05-15T12:14:48;70.75;58.50;37.00
73825;PMS5003;64145;55.060;73.168;2023-05-15T12:17:14;68.00;56.00;35.00
73825;PMS5003;64145;55.060;73.168;2023-05-15T12:19:40;69.00;56.00;36.00
73825;PMS5003;64145;55.060;73.168;2023-05-15T12:22:06;70.00;57.25;37.00
73825;PMS5003;64145;55.060;73.168;2023-05-15T12:24:32;70.25;58.50;38.25
73825;PMS5003;64145;55.060;73.168;2023-05-15T12:27:03;71.00;59.50;39.00
73825;PMS5003;64145;55.060;73.168;2023-05-15T12:29:29;68.33;57.00;37.00
73825;PMS5003;64145;55.060;73.168;2023-05-15T12:31:55;69.00;57.67;36.33
73825;PMS5003;64145;55.060;73.168;2023-05-15T12:34:20;70.67;60.00;37.67
73825;PMS5003;64145;55.060;73.168;2023-05-15T12:36:46;72.00;62.00;39.00
73825;PMS5003;64145;55.060;73.168;2023-05-15T12:39:12;70.00;59.00;38.00
73825;PMS5003;64145;55.060;73.168;2023-05-15T12:41:38;69.00;57.00;37.00
73825;PMS5003;64145;55.060;73.168;2023-05-15T12:44:22;69.75;58.00;35.25
73825;PMS5003;64145;55.060;73.168;2023-05-15T12:46:49;69.00;57.00;35.00
73825;PMS5003;64145;55.060;73.168;2023-05-15T12:49:21;67.00;52.50;35.00
73825;PMS5003;64145;55.060;73.168;2023-05-15T12:51:47;69.50;56.50;35.50
73825;PMS5003;64145;55.060;73.168;2023-05-15T12:54:16;67.50;53.50;35.00
73825;PMS5003;64145;55.060;73.168;2023-05-15T12:56:42;68.00;56.00;34.50
73825;PMS5003;64145;55.060;73.168;2023-05-15T12:59:27;68.50;55.00;34.00
73825;PMS5003;64145;55.060;73.168;2023-05-15T13:01:53;66.00;52.00;34.00
73825;PMS5003;64145;55.060;73.168;2023-05-15T13:04:18;67.00;54.67;34.00
73825;PMS5003;64145;55.060;73.168;2023-05-15T13:06:44;67.67;55.67;34.00
73825;PMS5003;64145;55.060;73.168;2023-05-15T13:09:10;68.00;56.00;34.50
73825;PMS5003;64145;55.060;73.168;2023-05-15T13:14:21;66.00;53.00;34.00
73825;PMS5003;64145;55.060;73.168;2023-05-15T13:16:51;65.50;53.00;34.00
73825;PMS5003;64145;55.060;73.168;2023-05-15T13:19:17;69.00;56.00;35.00
73825;PMS5003;64145;55.060;73.168;2023-05-15T13:21:42;69.00;55.00;34.00
73825;PMS5003;64145;55.060;73.168;2023-05-15T13:24:26;69.00;55.75;35.50
73825;PMS5003;64145;55.060;73.168;2023-05-15T13:27:11;69.25;57.00;37.00
73825;PMS5003;64145;55.060;73.168;2023-05-15T13:29:36;69.00;57.67;35.67
73825;PMS5003;64145;55.060;73.168;2023-05-15T13:32:02;70.00;60.00;38.33
73825;PMS5003;64145;55.060;73.168;2023-05-15T13:34:28;70.00;59.00;37.00
73825;PMS5003;64145;55.060;73.168;2023-05-15T13:36:53;69.33;56.67;37.67
73825;PMS5003;64145;55.060;73.168;2023-05-15T13:39:19;73.00;60.00;39.67
73825;PMS5003;64145;55.060;73.168;2023-05-15T13:41:44;72.00;62.33;39.00
73825;PMS5003;64145;55.060;73.168;2023-05-15T13:47:12;70.50;60.75;40.25
73825;PMS5003;64145;55.060;73.168;2023-05-15T13:49:38;67.00;55.33;35.67
73825;PMS5003;64145;55.060;73.168;2023-05-15T13:52:04;69.75;57.75;36.00
73825;PMS5003;64145;55.060;73.168;2023-05-15T13:57:14;68.00;56.75;37.00
73825;PMS5003;64145;55.060;73.168;2023-05-15T13:59:58;69.00;58.00;37.25
73825;PMS5003;64145;55.060;73.168;2023-05-15T14:02:23;69.00;57.00;35.00
73825;PMS5003;64145;55.060;73.168;2023-05-15T14:07:35;68.25;57.00;37.00
73825;PMS5003;64145;55.060;73.168;2023-05-15T14:10:01;68.33;56.67;37.00
73825;PMS5003;64145;55.060;73.168;2023-05-15T14:12:26;70.00;57.00;37.00
73825;PMS5003;64145;55.060;73.168;2023-05-15T14:14:53;70.00;58.00;36.50
73825;PMS5003;64145;55.060;73.168;2023-05-15T14:17:21;71.00;57.00;37.00
73825;PMS5003;64145;55.060;73.168;2023-05-15T14:19:47;68.50;59.00;36.75
73825;PMS5003;64145;55.060;73.168;2023-05-15T14:22:12;70.00;59.67;38.67
73825;PMS5003;64145;55.060;73.168;2023-05-15T14:27:22;70.00;59.00;39.00
73825;PMS5003;64145;55.060;73.168;2023-05-15T14:29:47;69.00;57.67;37.00
73825;PMS5003;64145;55.060;73.168;2023-05-15T14:32:13;69.67;58.00;37.00
73825;PMS5003;64145;55.060;73.168;2023-05-15T14:34:40;70.50;57.00;36.00
73825;PMS5003;64145;55.060;73.168;2023-05-15T14:37:24;70.75;57.00;37.00
73825;PMS5003;64145;55.060;73.168;2023-05-15T14:39:51;82.00;75.00;46.50
73825;PMS5003;64145;55.060;73.168;2023-05-15T14:42:17;128.00;115.33;65.67
73825;PMS5003;64145;55.060;73.168;2023-05-15T14:44:44;97.75;90.75;54.75
73825;PMS5003;64145;55.060;73.168;2023-05-15T14:47:10;83.00;78.33;47.33
73825;PMS5003;64145;55.060;73.168;2023-05-15T14:49:40;74.75;69.50;42.00
73825;PMS5003;64145;55.060;73.168;2023-05-15T14:54:51;71.00;59.25;38.00
73825;PMS5003;64145;55.060;73.168;2023-05-15T15:00:01;70.00;58.25;38.00
73825;PMS5003;64145;55.060;73.168;2023-05-15T15:02:26;70.33;59.00;36.00
73825;PMS5003;64145;55.060;73.168;2023-05-15T15:04:52;68.00;54.33;34.00
73825;PMS5003;64145;55.060;73.168;2023-05-15T15:07:17;70.33;59.00;37.00
73825;PMS5003;64145;55.060;73.168;2023-05-15T15:09:43;71.00;62.00;38.67
73825;PMS5003;64145;55.060;73.168;2023-05-15T15:12:09;70.33;57.67;37.00
73825;PMS5003;64145;55.060;73.168;2023-05-15T15:14:34;68.00;55.33;37.00
73825;PMS5003;64145;55.060;73.168;2023-05-15T15:17:00;70.00;58.00;36.67
73825;PMS5003;64145;55.060;73.168;2023-05-15T15:19:28;71.00;60.25;36.25
73825;PMS5003;64145;55.060;73.168;2023-05-15T15:21:53;74.67;66.67;42.67
73825;PMS5003;64145;55.060;73.168;2023-05-15T15:24:19;74.67;69.67;42.33
73825;PMS5003;64145;55.060;73.168;2023-05-15T15:26:45;72.00;62.67;40.33
73825;PMS5003;64145;55.060;73.168;2023-05-15T15:29:10;71.00;60.67;38.00